Time;durP1;ratioP1;P1;durP2;ratioP2;P2;SDS_P1;SDS_P2;PMS_P1;PMS_P2;Temp;Humidity;BMP_temperature;BMP_pressure;BME280_temperature;BME280_humidity;BME280_pressure;Samples;Min_cycle;Max_cycle;Signal;HPM_P1;HPM_P2
2023/05/28 00:01:44;;;;;;;6.93;6.47;;;;;;;-145.94;49.20;77024.66;5114239;28;20189;-68
2023/05/28 00:04:10;;;;;;;6.43;6.03;;;;;;;-145.94;49.09;77032.81;5114151;28;20189;-68
2023/05/28 00:06:37;;;;;;;5.77;5.57;;;;;;;-145.94;49.59;77038.94;5114310;28;20577;-68
2023/05/28 00:09:03;;;;;;;6.30;5.97;;;;;;;-145.94;49.73;77045.03;5114042;28;20632;-68
2023/05/28 00:11:29;;;;;;;6.70;6.40;;;;;;;-145.94;49.99;77047.09;5114112;28;20185;-68
2023/05/28 00:13:56;;;;;;;6.23;5.90;;;;;;;-145.94;50.30;77051.16;5114269;28;20190;-68
2023/05/28 00:16:22;;;;;;;6.60;6.20;;;;;;;-145.94;50.29;77059.31;5114578;28;20193;-68
2023/05/28 00:18:49;;;;;;;6.10;5.53;;;;;;;-145.94;50.44;77073.59;5114225;28;20205;-68
2023/05/28 00:21:15;;;;;;;6.67;6.27;;;;;;;-145.94;50.69;77081.75;5113906;28;20181;-68
2023/05/28 00:23:42;;;;;;;6.83;5.97;;;;;;;-145.94;51.30;77087.88;5114085;28;20189;-68
2023/05/28 00:26:09;;;;;;;6.00;5.67;;;;;;;-145.94;51.32;77089.91;5114030;28;20189;-68
2023/05/28 00:28:36;;;;;;;9.23;6.97;;;;;;;-145.94;51.53;77096.03;5113554;28;20703;-69
2023/05/28 00:31:03;;;;;;;7.13;6.83;;;;;;;-145.94;51.65;77096.03;5095549;28;20197;-68
2023/05/28 00:33:30;;;;;;;6.83;6.53;;;;;;;-145.94;51.59;77102.16;5095836;28;20189;-68
2023/05/28 00:35:56;;;;;;;8.00;7.20;;;;;;;-145.94;51.75;77104.19;5114074;28;20230;-68
2023/05/28 00:38:23;;;;;;;6.87;6.40;;;;;;;-145.94;52.25;77106.22;5095399;28;20209;-68
2023/05/28 00:40:50;;;;;;;7.20;6.50;;;;;;;-145.94;52.42;77102.16;5113747;28;20238;-68
2023/05/28 00:43:16;;;;;;;6.90;6.50;;;;;;;-145.94;52.66;77116.41;5115164;28;20247;-68
2023/05/28 00:45:43;;;;;;;10.73;7.27;;;;;;;-145.94;52.24;77116.41;5120517;28;20185;-68
2023/05/28 00:48:10;;;;;;;7.17;6.73;;;;;;;-145.94;52.46;77118.47;5102036;28;20277;-68
2023/05/28 00:50:38;;;;;;;7.23;6.70;;;;;;;-145.94;52.06;77118.47;5120486;28;20209;-68
2023/05/28 00:53:04;;;;;;;7.43;7.03;;;;;;;-145.94;51.86;77120.50;5102367;28;20301;-68
2023/05/28 00:55:31;;;;;;;8.80;6.63;;;;;;;-145.94;52.44;77128.66;5121232;28;20189;-68
2023/05/28 00:58:05;;;;;;;7.43;6.90;;;;;;;-145.94;52.24;77128.66;5120308;28;20208;-68
2023/05/28 01:00:34;;;;;;;6.90;6.60;;;;;;;-145.94;52.45;77134.78;5120659;28;20587;-68
2023/05/28 01:03:01;;;;;;;6.97;6.43;;;;;;;-145.94;52.62;77140.91;5120371;28;20189;-68
2023/05/28 01:05:31;;;;;;;8.13;6.87;;;;;;;-145.94;52.64;77140.91;5120315;28;20177;-68
2023/05/28 01:08:00;;;;;;;7.63;7.10;;;;;;;-145.94;52.55;77153.13;5120415;28;20630;-68
2023/05/28 01:10:27;;;;;;;7.00;6.63;;;;;;;-145.94;52.50;77165.38;5120292;28;20188;-68
2023/05/28 01:12:54;;;;;;;6.87;6.50;;;;;;;-145.94;53.07;77185.75;5120241;28;20242;-68
2023/05/28 01:15:21;;;;;;;6.90;6.60;;;;;;;-145.94;53.21;77204.13;5120500;28;20238;-68
2023/05/28 01:17:47;;;;;;;7.53;7.17;;;;;;;-145.94;53.74;77212.28;5120303;28;20212;-68
2023/05/28 01:20:15;;;;;;;7.53;7.00;;;;;;;-145.94;53.99;77222.47;5120180;28;20239;-68
2023/05/28 01:22:50;;;;;;;8.47;7.73;;;;;;;-145.94;54.28;77228.59;5101910;28;20217;-68
2023/05/28 01:25:18;;;;;;;7.80;7.10;;;;;;;-145.94;54.83;77236.75;5120411;28;20176;-68
2023/05/28 01:27:44;;;;;;;7.57;7.07;;;;;;;-145.94;54.70;77242.88;5101815;28;20227;-68
2023/05/28 01:30:12;;;;;;;8.00;7.43;;;;;;;-145.94;54.96;77244.91;5101803;28;20193;-68
2023/05/28 01:32:39;;;;;;;7.40;6.67;;;;;;;-145.94;55.22;77253.06;5120065;28;20528;-68
2023/05/28 01:35:08;;;;;;;7.27;6.73;;;;;;;-145.94;55.15;77261.22;5101765;28;20220;-68
2023/05/28 01:37:39;;;;;;;7.13;6.80;;;;;;;-145.94;55.51;77261.22;5101875;28;20292;-68
2023/05/28 01:40:08;;;;;;;7.43;6.93;;;;;;;-145.94;55.45;77259.19;5120093;28;20623;-68
2023/05/28 01:42:36;;;;;;;8.17;7.63;;;;;;;-145.94;55.38;77257.13;5101699;28;20204;-68
2023/05/28 01:45:06;;;;;;;7.53;7.23;;;;;;;-145.94;55.66;77257.13;5101959;28;20189;-68
2023/05/28 01:47:36;;;;;;;6.23;6.03;;;;;;;-145.94;55.31;77259.19;5101991;28;20220;-68
2023/05/28 01:50:03;;;;;;;8.17;7.60;;;;;;;-145.94;55.71;77261.22;5119932;28;20723;-68
2023/05/28 01:52:29;;;;;;;8.90;8.17;;;;;;;-145.94;55.84;77265.28;5101912;28;20651;-68
2023/05/28 01:54:56;;;;;;;9.13;8.33;;;;;;;-145.94;55.18;77269.38;5118333;28;20246;-68
2023/05/28 01:57:23;;;;;;;8.60;8.20;;;;;;;-145.94;55.48;77271.41;5116832;28;20189;-68
2023/05/28 01:59:49;;;;;;;7.67;7.40;;;;;;;-145.94;55.17;77275.50;5098281;28;20185;-68
2023/05/28 02:02:16;;;;;;;8.77;8.17;;;;;;;-145.94;55.86;77275.50;5098775;28;20193;-68
2023/05/28 02:04:42;;;;;;;7.83;7.37;;;;;;;-145.94;55.65;77291.81;5098278;28;20577;-68
2023/05/28 02:07:09;;;;;;;8.77;7.90;;;;;;;-145.94;55.93;77302.00;5098063;28;20213;-68
2023/05/28 02:09:35;;;;;;;7.33;7.00;;;;;;;-145.94;56.07;77310.16;5098142;28;20199;-68
2023/05/28 02:12:02;;;;;;;7.83;7.43;;;;;;;-145.94;56.62;77302.00;5098105;28;20193;-68
2023/05/28 02:14:29;;;;;;;8.43;7.73;;;;;;;-145.94;56.82;77302.00;5098088;28;20185;-68
2023/05/28 02:16:56;;;;;;;7.93;7.53;;;;;;;-145.94;57.25;77299.97;5116269;28;20192;-68
2023/05/28 02:19:24;;;;;;;7.97;7.50;;;;;;;-145.94;56.82;77302.00;5097921;28;20229;-68
2023/05/28 02:21:51;;;;;;;9.03;8.37;;;;;;;-145.94;56.73;77308.13;5116196;28;20185;-68
2023/05/28 02:24:18;;;;;;;8.80;8.30;;;;;;;-145.94;56.85;77308.13;5116097;28;20189;-68
2023/05/28 02:26:44;;;;;;;9.40;8.10;;;;;;;-145.94;57.00;77318.31;5116620;28;20190;-68
2023/05/28 02:29:11;;;;;;;9.20;8.53;;;;;;;-145.94;56.92;77316.28;5097560;28;20218;-68
2023/05/28 02:31:37;;;;;;;8.83;8.10;;;;;;;-145.94;56.60;77320.34;5116084;28;20189;-68
2023/05/28 02:34:04;;;;;;;8.80;8.03;;;;;;;-145.94;57.33;77320.34;5116249;28;20212;-68
2023/05/28 02:36:32;;;;;;;9.60;8.67;;;;;;;-145.94;57.33;77320.34;5116452;28;20272;-68
2023/05/28 02:38:59;;;;;;;11.40;8.13;;;;;;;-145.94;57.42;77320.34;5097430;28;20211;-68
2023/05/28 02:41:26;;;;;;;8.80;8.07;;;;;;;-145.94;57.13;77324.44;5097487;28;20193;-68
2023/05/28 02:43:55;;;;;;;8.33;7.83;;;;;;;-145.94;57.37;77328.50;5097476;28;20730;-68
2023/05/28 02:46:21;;;;;;;8.80;8.20;;;;;;;-145.94;57.57;77324.44;5097399;28;20192;-68
2023/05/28 02:48:48;;;;;;;8.33;7.73;;;;;;;-145.94;57.43;77330.56;5097387;28;20244;-68
2023/05/28 02:51:17;;;;;;;8.40;7.73;;;;;;;-145.94;57.68;77330.56;5097677;28;20199;-68
2023/05/28 02:53:53;;;;;;;7.57;7.27;;;;;;;-145.94;57.49;77338.72;5097584;28;20622;-68
2023/05/28 02:56:21;;;;;;;9.87;7.63;;;;;;;-145.94;57.46;77348.91;5097249;28;20205;-68
2023/05/28 02:58:48;;;;;;;8.77;8.17;;;;;;;-145.94;57.48;77348.91;5115413;28;20201;-68
2023/05/28 03:01:14;;;;;;;8.80;8.07;;;;;;;-145.94;57.74;77365.22;5115615;28;20197;-68
2023/05/28 03:03:41;;;;;;;9.53;8.57;;;;;;;-145.94;57.61;77373.38;5097081;28;20197;-68
2023/05/28 03:06:07;;;;;;;8.93;8.27;;;;;;;-145.94;58.08;77381.53;5096911;28;20234;-68
2023/05/28 03:08:45;;;;;;;8.57;8.10;;;;;;;-145.94;58.16;77391.75;5097703;28;20227;-68
2023/05/28 03:11:11;;;;;;;9.43;8.67;;;;;;;-145.94;58.16;77385.63;5096997;28;20193;-68
2023/05/28 03:13:37;;;;;;;11.30;8.60;;;;;;;-145.94;58.25;77391.75;5115441;28;20192;-68
2023/05/28 03:16:05;;;;;;;8.93;8.33;;;;;;;-145.94;58.61;77393.78;5097153;28;20186;-68
2023/05/28 03:18:33;;;;;;;12.30;8.50;;;;;;;-145.94;58.45;77389.69;5096757;28;20578;-68
2023/05/28 03:21:01;;;;;;;9.40;8.57;;;;;;;-145.94;58.43;77395.81;5096939;28;20655;-68
2023/05/28 03:23:28;;;;;;;12.87;8.77;;;;;;;-145.94;58.60;77401.94;5096971;28;20199;-68
2023/05/28 03:26:04;;;;;;;9.70;9.10;;;;;;;-145.94;58.82;77401.94;5096699;28;20200;-68
2023/05/28 03:28:31;;;;;;;8.37;7.67;;;;;;;-145.94;58.78;77406.00;5096423;28;20227;-68
2023/05/28 03:31:29;;;;;;;8.90;8.23;;;;;;;-145.94;58.71;77410.09;5098964;28;20234;-68
2023/05/28 03:33:57;;;;;;;10.57;9.23;;;;;;;-145.94;58.69;77408.06;5096517;28;20200;-68
2023/05/28 03:36:26;;;;;;;10.97;9.57;;;;;;;-145.94;58.57;77414.16;5115256;28;20178;-68
2023/05/28 03:38:53;;;;;;;8.37;7.83;;;;;;;-145.94;58.84;77418.25;5096371;28;20213;-68
2023/05/28 03:41:22;;;;;;;7.77;7.43;;;;;;;-145.94;58.64;77416.22;5096319;28;20687;-68
2023/05/28 03:43:49;;;;;;;8.43;7.83;;;;;;;-145.94;58.72;77424.38;5114562;28;20211;-68
2023/05/28 03:46:15;;;;;;;11.30;8.97;;;;;;;-145.94;58.76;77426.41;5096602;28;20249;-68
2023/05/28 03:48:42;;;;;;;16.60;9.00;;;;;;;-145.94;58.93;77432.53;5096135;28;20221;-68
2023/05/28 03:51:09;;;;;;;10.57;8.93;;;;;;;-145.94;58.93;77426.41;5096377;28;20283;-68
2023/05/28 03:53:36;;;;;;;9.37;8.77;;;;;;;-145.94;59.17;77428.44;5114369;28;20264;-68
2023/05/28 03:56:03;;;;;;;8.67;8.07;;;;;;;-145.94;59.33;77434.56;5096393;28;20205;-68
2023/05/28 03:58:30;;;;;;;9.47;8.70;;;;;;;-145.94;59.57;77430.50;5096022;28;20301;-68
2023/05/28 04:00:59;;;;;;;9.47;8.67;;;;;;;-145.94;59.29;77428.44;5096042;28;20177;-68
2023/05/28 04:03:26;;;;;;;8.83;8.33;;;;;;;-145.94;59.29;77432.53;5114242;28;20234;-68
2023/05/28 04:05:53;;;;;;;9.57;8.87;;;;;;;-145.94;59.20;77436.59;5095936;28;20193;-68
2023/05/28 04:08:21;;;;;;;8.67;8.10;;;;;;;-145.94;59.44;77438.66;5095795;28;20257;-68
2023/05/28 04:10:48;;;;;;;12.17;8.70;;;;;;;-145.94;59.34;77434.56;5095891;28;20188;-68
2023/05/28 04:13:14;;;;;;;9.27;8.70;;;;;;;-145.94;59.47;77432.53;5114555;28;20189;-68
2023/05/28 04:15:41;;;;;;;10.43;8.77;;;;;;;-145.94;59.57;77430.50;5095876;28;20189;-68
2023/05/28 04:18:07;;;;;;;8.53;8.03;;;;;;;-145.94;59.59;77428.44;5095156;28;20209;-68
2023/05/28 04:20:35;;;;;;;9.67;8.87;;;;;;;-145.94;59.55;77430.50;5095751;28;20280;-68
2023/05/28 04:23:03;;;;;;;8.90;8.07;;;;;;;-145.94;59.75;77422.34;5114242;28;20193;-68
2023/05/28 04:25:31;;;;;;;10.20;8.60;;;;;;;-145.94;60.26;77416.22;5095701;28;20189;-68
2023/05/28 04:28:00;;;;;;;10.20;9.33;;;;;;;-145.94;59.90;77426.41;5113649;28;20221;-68
2023/05/28 04:30:27;;;;;;;10.10;9.30;;;;;;;-145.94;60.33;77436.59;5095636;28;20193;-68
2023/05/28 04:32:53;;;;;;;10.53;9.67;;;;;;;-145.94;60.30;77438.66;5114229;28;20556;-68
2023/05/28 04:35:21;;;;;;;9.70;9.10;;;;;;;-145.94;60.47;77434.56;5095491;28;20193;-68
2023/05/28 04:37:50;;;;;;;7.90;7.53;;;;;;;-145.94;60.49;77438.66;5095512;28;20205;-68
2023/05/28 04:40:18;;;;;;;9.60;8.67;;;;;;;-145.94;60.56;77430.50;5095808;28;20254;-68
2023/05/28 04:42:47;;;;;;;10.13;9.10;;;;;;;-145.94;60.92;77428.44;5095488;28;20613;-68
2023/05/28 04:45:14;;;;;;;10.07;9.37;;;;;;;-145.94;60.85;77426.41;5095429;28;20189;-68
2023/05/28 04:47:43;;;;;;;9.53;8.93;;;;;;;-145.94;60.86;77420.28;5095323;28;20245;-68
2023/05/28 04:50:10;;;;;;;9.60;9.00;;;;;;;-145.94;61.09;77418.25;5095393;28;20242;-68
2023/05/28 04:52:37;;;;;;;8.87;8.27;;;;;;;-145.94;60.99;77408.06;5113823;28;20188;-68
2023/05/28 04:55:04;;;;;;;9.83;9.00;;;;;;;-145.94;60.96;77395.81;5114372;28;20193;-68
2023/05/28 04:57:30;;;;;;;10.37;9.37;;;;;;;-145.94;61.09;77387.66;5095249;28;20209;-68
2023/05/28 04:59:57;;;;;;;10.00;9.00;;;;;;;-145.94;61.39;77377.47;5113533;28;20193;-68
2023/05/28 05:02:23;;;;;;;10.53;9.63;;;;;;;-145.94;61.24;77379.50;5113798;28;20668;-68
2023/05/28 05:04:50;;;;;;;14.10;8.93;;;;;;;-145.94;61.26;77357.06;5095270;28;20286;-68
2023/05/28 05:07:18;;;;;;;16.63;9.70;;;;;;;-145.94;61.30;77344.84;5095400;28;20677;-68
2023/05/28 05:09:44;;;;;;;10.23;9.57;;;;;;;-145.94;60.85;77332.59;5095141;28;20205;-68
2023/05/28 05:12:11;;;;;;;9.93;8.97;;;;;;;-145.94;60.94;77322.41;5095255;28;20177;-68
2023/05/28 05:14:38;;;;;;;11.03;10.10;;;;;;;-145.94;60.24;77306.09;5095176;28;20188;-68
2023/05/28 05:17:06;;;;;;;12.83;9.40;;;;;;;-145.94;59.80;77299.97;5095193;28;20230;-68
2023/05/28 05:19:33;;;;;;;14.93;9.07;;;;;;;-145.94;59.66;77281.59;5095124;28;20223;-68
2023/05/28 05:22:00;;;;;;;10.27;9.37;;;;;;;-145.94;59.21;77285.69;5095145;28;20189;-68
2023/05/28 05:24:29;;;;;;;11.07;10.17;;;;;;;-145.94;58.75;77279.56;5095029;28;20560;-68
2023/05/28 05:26:55;;;;;;;13.00;10.73;;;;;;;-145.94;58.89;77273.44;5095120;28;20309;-68
2023/05/28 05:29:22;;;;;;;11.47;9.37;;;;;;;-145.94;58.34;77259.19;5095036;28;20221;-68
2023/05/28 05:31:49;;;;;;;12.97;9.33;;;;;;;-145.94;57.90;77242.88;5097998;28;20185;-68
2023/05/28 05:34:16;;;;;;;10.40;9.43;;;;;;;-145.94;57.72;77234.69;5099166;28;20196;-68
2023/05/28 05:37:03;;;;;;;13.30;10.10;;;;;;;-145.94;57.46;77218.38;5116729;28;20276;-68
2023/05/28 05:39:39;;;;;;;15.83;10.40;;;;;;;-145.94;57.20;77202.06;5117610;28;20180;-68
2023/05/28 05:42:37;;;;;;;14.53;9.03;;;;;;;-145.94;56.56;77185.75;5098717;28;20197;-68
2023/05/28 05:45:05;;;;;;;10.40;9.47;;;;;;;-145.94;56.46;77179.63;5098592;28;20185;-68
2023/05/28 05:47:31;;;;;;;9.17;8.47;;;;;;;-145.94;56.56;77177.59;5098518;28;20209;-68
2023/05/28 05:49:59;;;;;;;9.03;8.50;;;;;;;-145.94;56.13;77167.41;5098387;28;20292;-68
2023/05/28 05:52:27;;;;;;;12.27;9.67;;;;;;;-145.94;55.49;77153.13;5098522;28;20197;-68
2023/05/28 05:54:54;;;;;;;9.40;8.77;;;;;;;-145.94;55.32;77134.78;5098439;28;20197;-68
2023/05/28 05:57:22;;;;;;;10.07;9.13;;;;;;;-145.94;55.98;77114.38;5098258;28;20193;-68
2023/05/28 05:59:49;;;;;;;12.77;8.93;;;;;;;-145.94;55.48;77098.06;5098316;28;20238;-68
2023/05/28 06:02:15;;;;;;;15.53;8.70;;;;;;;-145.94;55.41;77089.91;5098530;28;20544;-68
2023/05/28 06:04:42;;;;;;;10.10;9.27;;;;;;;-145.94;55.03;77079.72;5098313;28;20193;-68
2023/05/28 06:07:25;;;;;;;12.00;9.13;;;;;;;-145.94;54.94;77059.31;5098420;28;20577;-68
2023/05/28 06:10:11;;;;;;;8.47;7.83;;;;;;;-145.94;55.17;77030.78;5116962;28;20294;-68
2023/05/28 06:12:39;;;;;;;9.87;8.93;;;;;;;-145.94;53.68;77014.47;5098073;28;20283;-68
2023/05/28 06:15:06;;;;;;;9.23;8.43;;;;;;;-145.94;52.99;77010.38;5098363;28;20193;-68
2023/05/28 06:17:33;;;;;;;9.63;8.67;;;;;;;-145.94;52.90;76987.94;5098829;28;20527;-68
2023/05/28 06:20:00;;;;;;;8.37;7.90;;;;;;;-145.94;52.61;76979.78;5098456;28;20181;-68
2023/05/28 06:22:29;;;;;;;8.57;8.27;;;;;;;-145.94;51.95;76973.66;5097909;28;20193;-69
2023/05/28 06:24:56;;;;;;;9.03;8.40;;;;;;;-145.94;51.77;76967.56;5116399;28;20707;-69
2023/05/28 06:27:22;;;;;;;10.70;8.03;;;;;;;-145.94;51.76;76969.59;5097683;28;20181;-68
2023/05/28 06:29:49;;;;;;;9.23;8.33;;;;;;;-145.94;52.17;76959.41;5116294;28;20193;-68
2023/05/28 06:32:16;;;;;;;7.97;7.53;;;;;;;-145.94;52.11;76955.31;5097959;28;20715;-68
2023/05/28 06:34:43;;;;;;;8.27;7.67;;;;;;;-145.94;51.99;76949.19;5097882;28;20192;-69
2023/05/28 06:37:10;;;;;;;8.27;7.77;;;;;;;-145.94;51.94;76939.00;5097743;28;20647;-67
2023/05/28 06:39:36;;;;;;;8.97;8.17;;;;;;;-145.94;51.79;76924.72;5116090;28;20647;-68
2023/05/28 06:42:03;;;;;;;12.83;10.00;;;;;;;-145.94;51.64;76902.28;5096962;28;20280;-68
2023/05/28 06:44:37;;;;;;;8.37;7.60;;;;;;;-145.94;51.51;76890.06;5097882;28;20729;-68
2023/05/28 06:47:08;;;;;;;8.80;8.10;;;;;;;-145.94;50.85;76865.59;5097571;28;20612;-68
2023/05/28 06:49:35;;;;;;;7.87;7.20;;;;;;;-145.94;50.57;76843.16;5115785;28;20255;-68
2023/05/28 06:52:01;;;;;;;10.43;7.90;;;;;;;-145.94;50.77;76832.97;5115599;28;20181;-68
2023/05/28 06:54:29;;;;;;;20.90;8.13;;;;;;;-145.94;49.77;76812.56;5097256;28;20667;-68
2023/05/28 06:56:56;;;;;;;8.30;7.87;;;;;;;-145.94;49.28;76814.63;5097209;28;20193;-68
2023/05/28 06:59:43;;;;;;;7.50;6.80;;;;;;;-145.94;49.64;76784.03;5097450;28;20189;-68
2023/05/28 07:02:32;;;;;;;6.97;6.43;;;;;;;-145.94;48.47;76767.72;5106924;28;20204;-68
2023/05/28 07:05:22;;;;;;;8.70;7.63;;;;;;;-145.94;47.46;76753.44;5095806;28;20284;-68
2023/05/28 07:07:49;;;;;;;6.43;6.03;;;;;;;-145.94;47.81;76743.25;5096935;28;20240;-68
2023/05/28 07:10:16;;;;;;;9.67;6.97;;;;;;;-145.94;46.92;76743.25;5096757;28;20217;-69
2023/05/28 07:12:43;;;;;;;7.37;6.80;;;;;;;-145.94;46.58;76731.00;5096678;28;20189;-69
2023/05/28 07:15:10;;;;;;;7.83;7.23;;;;;;;-145.94;47.48;76716.72;5096861;28;20227;-69
2023/05/28 07:17:36;;;;;;;7.17;6.73;;;;;;;-145.94;46.81;76706.53;5096760;28;20755;-68
2023/05/28 07:20:05;;;;;;;8.83;7.07;;;;;;;-145.94;46.75;76696.34;5096776;28;20272;-69
2023/05/28 07:22:49;;;;;;;6.90;6.53;;;;;;;-145.94;45.82;76690.22;5097600;28;20197;-70
2023/05/28 07:25:15;;;;;;;6.33;6.03;;;;;;;-145.94;45.63;76684.09;5096765;28;20178;-69
2023/05/28 07:27:42;;;;;;;8.63;6.67;;;;;;;-145.94;44.61;76669.84;5096432;28;20690;-69
2023/05/28 07:30:10;;;;;;;7.10;6.37;;;;;;;-145.94;43.99;76663.72;5096522;28;20205;-69
2023/05/28 07:32:36;;;;;;;7.77;6.43;;;;;;;-145.94;44.04;76643.31;5096853;28;20192;-68
2023/05/28 07:35:04;;;;;;;5.60;5.40;;;;;;;-145.94;44.52;76629.06;5096524;28;20594;-69
2023/05/28 07:37:32;;;;;;;5.53;5.43;;;;;;;-145.94;44.28;76604.59;5096433;28;20326;-68
2023/05/28 07:39:58;;;;;;;6.07;5.67;;;;;;;-145.94;43.14;76598.47;5096624;28;20188;-69
2023/05/28 07:42:25;;;;;;;5.50;5.33;;;;;;;-145.94;43.09;76584.19;5096424;28;20189;-69
2023/05/28 07:45:00;;;;;;;6.03;5.60;;;;;;;-145.94;43.69;76580.13;5096384;28;20191;-69
2023/05/28 07:47:26;;;;;;;13.17;6.17;;;;;;;-145.94;43.21;76571.97;5096232;28;20199;-68
2023/05/28 07:50:11;;;;;;;6.43;5.90;;;;;;;-145.94;43.55;76555.66;5114489;28;20242;-69
2023/05/28 07:52:53;;;;;;;5.63;5.13;;;;;;;-145.94;43.16;76543.41;5096235;28;20185;-69
2023/05/28 07:55:21;;;;;;;4.17;3.97;;;;;;;-145.94;43.82;76543.41;5096133;28;20235;-69
2023/05/28 07:57:47;;;;;;;6.93;5.27;;;;;;;-145.94;43.15;76537.28;5095975;28;20730;-69
2023/05/28 08:00:15;;;;;;;5.03;4.80;;;;;;;-145.94;43.09;76535.25;5114320;28;20554;-69
2023/05/28 08:02:51;;;;;;;8.17;5.20;;;;;;;-145.94;42.08;76543.41;5114789;28;20173;-69
2023/05/28 08:05:21;;;;;;;4.87;4.60;;;;;;;-145.94;42.70;76527.09;5095982;28;20189;-69
2023/05/28 08:07:47;;;;;;;5.50;5.03;;;;;;;-145.94;42.68;76520.97;5095889;28;20214;-69
2023/05/28 08:10:14;;;;;;;10.50;5.63;;;;;;;-145.94;42.50;76500.59;5096105;28;20675;-69
2023/05/28 08:12:41;;;;;;;12.97;5.70;;;;;;;-145.94;42.32;76488.34;5095852;28;20565;-69
2023/05/28 08:15:08;;;;;;;6.63;5.77;;;;;;;-145.94;41.16;76486.31;5095879;28;20193;-69
2023/05/28 08:17:35;;;;;;;5.33;4.90;;;;;;;-145.94;40.88;76480.19;5096440;28;20262;-69
2023/05/28 08:20:11;;;;;;;7.80;4.70;;;;;;;-145.94;40.99;76472.03;5095779;28;20265;-69
2023/05/28 08:22:49;;;;;;;4.90;4.77;;;;;;;-145.94;40.96;76457.78;5096162;28;20193;-69
2023/05/28 08:25:15;;;;;;;5.27;4.97;;;;;;;-145.94;40.20;76459.81;5114171;28;20276;-70
2023/05/28 08:27:43;;;;;;;3.97;3.87;;;;;;;-145.94;40.24;76443.50;5095561;28;20231;-69
2023/05/28 08:30:10;;;;;;;4.83;4.73;;;;;;;-145.94;39.61;76439.41;5095453;28;20216;-69
2023/05/28 08:32:51;;;;;;;5.40;4.93;;;;;;;-145.94;39.34;76421.06;5095613;28;20180;-69
2023/05/28 08:35:17;;;;;;;4.97;4.73;;;;;;;-145.94;39.60;76429.22;5114040;28;20642;-69
2023/05/28 08:37:46;;;;;;;4.80;4.43;;;;;;;-145.94;39.93;76425.16;5095445;28;20240;-69
2023/05/28 08:40:23;;;;;;;6.13;4.27;;;;;;;-145.94;40.04;76425.16;5095985;28;20180;-69
2023/05/28 08:42:50;;;;;;;4.87;4.70;;;;;;;-145.94;40.35;76421.06;5096053;28;20192;-69
2023/05/28 08:45:16;;;;;;;5.40;4.97;;;;;;;-145.94;39.83;76425.16;5095450;28;20195;-69
2023/05/28 08:47:48;;;;;;;5.23;4.77;;;;;;;-145.94;40.62;76421.06;5095695;28;20233;-69
2023/05/28 08:50:21;;;;;;;4.07;3.90;;;;;;;-145.94;40.98;76423.13;5095941;28;20258;-69
2023/05/28 08:53:16;;;;;;;6.70;5.07;;;;;;;-145.94;41.12;76410.88;5095231;28;20662;-70
2023/05/28 08:55:45;;;;;;;4.60;4.43;;;;;;;-145.94;41.38;76400.69;5095410;28;20187;-70
2023/05/28 08:58:20;;;;;;;5.27;5.07;;;;;;;-145.94;40.78;76394.56;5095814;28;20292;-70
2023/05/28 09:00:49;;;;;;;5.07;4.80;;;;;;;-145.94;39.64;76388.44;5095326;28;20173;-70
2023/05/28 09:03:29;;;;;;;4.43;4.07;;;;;;;-145.94;40.13;76370.09;5095355;28;20193;-69
2023/05/28 09:06:03;;;;;;;5.27;4.73;;;;;;;-145.94;39.67;76347.66;5098851;28;20188;-69
2023/05/28 09:08:30;;;;;;;5.50;5.20;;;;;;;-145.94;39.14;76343.59;5117521;28;20698;-70
2023/05/28 09:10:56;;;;;;;4.77;4.50;;;;;;;-145.94;39.89;76335.44;5099197;28;20225;-69
2023/05/28 09:13:25;;;;;;;4.77;4.47;;;;;;;-145.94;39.59;76315.03;5099233;28;20667;-70
2023/05/28 09:15:53;;;;;;;5.60;5.10;;;;;;;-145.94;39.44;76306.88;5099172;28;20582;-69
2023/05/28 09:18:21;;;;;;;7.60;4.77;;;;;;;-145.94;39.34;76278.34;5099339;28;20625;-69
2023/05/28 09:20:48;;;;;;;5.40;4.40;;;;;;;-145.94;39.17;76266.13;5099131;28;20204;-70
2023/05/28 09:23:18;;;;;;;4.17;3.90;;;;;;;-145.94;39.02;76262.03;5099111;28;20563;-70
2023/05/28 09:26:02;;;;;;;4.83;4.53;;;;;;;-145.94;39.60;76237.56;5117763;28;20173;-69
2023/05/28 09:28:43;;;;;;;4.53;4.23;;;;;;;-145.94;38.75;76233.50;5098929;28;20236;-69
2023/05/28 09:31:10;;;;;;;5.10;4.80;;;;;;;-145.94;38.31;76229.41;5117704;28;20196;-69
2023/05/28 09:33:45;;;;;;;5.17;4.80;;;;;;;-145.94;39.11;76207.00;5117157;28;20213;-69
2023/05/28 09:36:16;;;;;;;5.57;4.13;;;;;;;-145.94;38.33;76198.81;5117112;28;20189;-69
2023/05/28 09:38:43;;;;;;;3.97;3.77;;;;;;;-145.94;38.25;76196.78;5117329;28;20640;-69
2023/05/28 09:41:22;;;;;;;6.73;4.80;;;;;;;-145.94;37.28;76194.75;5116983;28;20185;-69
2023/05/28 09:44:00;;;;;;;4.03;3.93;;;;;;;-145.94;36.95;76182.53;5117293;28;20260;-69
2023/05/28 09:46:32;;;;;;;5.53;4.53;;;;;;;-145.94;38.19;76162.13;5117216;28;20177;-69
2023/05/28 09:48:59;;;;;;;4.43;4.23;;;;;;;-145.94;37.58;76147.84;5117305;28;20374;-70
2023/05/28 09:51:29;;;;;;;3.67;3.57;;;;;;;-145.94;37.95;76141.75;5116781;28;20211;-69
2023/05/28 09:54:01;;;;;;;4.07;3.77;;;;;;;-145.94;37.05;76145.81;5116783;28;20182;-69
2023/05/28 09:56:29;;;;;;;3.87;3.60;;;;;;;-145.94;36.70;76139.69;5117160;28;20173;-70
2023/05/28 09:58:57;;;;;;;5.57;4.77;;;;;;;-145.94;36.11;76145.81;5116777;28;20213;-69
2023/05/28 10:01:30;;;;;;;5.70;4.57;;;;;;;-145.94;36.76;76135.63;5116635;28;20185;-69
2023/05/28 10:04:04;;;;;;;4.67;4.27;;;;;;;-145.94;36.01;76151.94;5117089;28;20524;-69
2023/05/28 10:06:35;;;;;;;4.63;4.33;;;;;;;-145.94;36.81;76133.59;5116763;28;20173;-69
2023/05/28 10:09:02;;;;;;;4.10;3.80;;;;;;;-145.94;37.14;76123.41;5116382;28;20197;-70
2023/05/28 10:11:34;;;;;;;3.83;3.63;;;;;;;-145.94;36.51;76119.31;5116654;28;20178;-70
2023/05/28 10:14:01;;;;;;;3.70;3.40;;;;;;;-145.94;35.55;76103.00;5116618;28;20181;-70
2023/05/28 10:16:28;;;;;;;5.17;3.87;;;;;;;-145.94;36.06;76092.81;5115585;28;20181;-69
2023/05/28 10:18:56;;;;;;;4.37;4.17;;;;;;;-145.94;35.72;76098.94;5116464;28;20575;-69
2023/05/28 10:21:24;;;;;;;4.37;4.17;;;;;;;-145.94;35.05;76100.97;5116238;28;20185;-70
2023/05/28 10:23:51;;;;;;;4.13;3.83;;;;;;;-145.94;35.79;76098.94;5116463;28;20189;-69
2023/05/28 10:26:18;;;;;;;4.33;4.03;;;;;;;-145.94;34.46;76103.00;5116694;28;20193;-69
2023/05/28 10:28:45;;;;;;;4.63;4.17;;;;;;;-145.94;34.38;76113.19;5115915;28;20630;-70
2023/05/28 10:31:11;;;;;;;3.97;3.87;;;;;;;-145.94;34.98;76123.41;5116503;28;20209;-70
2023/05/28 10:33:40;;;;;;;3.63;3.50;;;;;;;-145.94;36.08;76098.94;5098500;28;20193;-69
2023/05/28 10:36:14;;;;;;;4.70;4.07;;;;;;;-145.94;35.43;76090.78;5115939;28;20207;-70
2023/05/28 10:38:52;;;;;;;3.83;3.63;;;;;;;-145.94;35.62;76082.63;5116695;28;20595;-69
2023/05/28 10:41:21;;;;;;;4.63;4.37;;;;;;;-145.94;35.15;76064.25;5116160;28;20178;-70
2023/05/28 10:43:49;;;;;;;12.20;4.13;;;;;;;-145.94;34.30;76062.22;5116284;28;20181;-69
2023/05/28 10:46:25;;;;;;;4.40;4.10;;;;;;;-145.94;34.49;76064.25;5116023;28;20178;-69
2023/05/28 10:49:12;;;;;;;3.10;3.00;;;;;;;-145.94;34.80;76070.38;5115701;28;20236;-69
2023/05/28 10:51:46;;;;;;;3.80;3.60;;;;;;;-145.94;33.82;76080.56;5115655;28;20222;-70
2023/05/28 10:54:20;;;;;;;4.37;4.03;;;;;;;-145.94;34.19;76082.63;5115900;28;20226;-69
2023/05/28 10:57:18;;;;;;;5.30;4.23;;;;;;;-145.94;34.51;76076.50;5116147;28;20170;-70
2023/05/28 10:59:48;;;;;;;4.17;3.97;;;;;;;-145.94;34.19;76074.47;5097153;28;20224;-69
2023/05/28 11:02:25;;;;;;;3.93;3.63;;;;;;;-145.94;34.13;76062.22;5097394;28;20174;-70
2023/05/28 11:04:59;;;;;;;6.23;4.10;;;;;;;-145.94;34.84;76062.22;5115637;28;20576;-69
2023/05/28 11:07:30;;;;;;;3.63;3.33;;;;;;;-145.94;32.93;76062.22;5115593;28;20231;-69
2023/05/28 11:09:57;;;;;;;3.77;3.67;;;;;;;-145.94;33.34;76056.13;5115808;28;20193;-70
2023/05/28 11:12:26;;;;;;;3.77;3.53;;;;;;;-145.94;34.42;76047.97;5115778;28;20644;-70
2023/05/28 11:14:53;;;;;;;3.93;3.73;;;;;;;-145.94;34.94;76037.75;5115427;28;20177;-70
2023/05/28 11:17:19;;;;;;;3.80;3.70;;;;;;;-145.94;35.11;76037.75;5115540;28;20185;-69
2023/05/28 11:19:48;;;;;;;8.63;3.77;;;;;;;-145.94;34.55;76035.72;5115030;28;20181;-70
2023/05/28 11:22:16;;;;;;;7.33;3.93;;;;;;;-145.94;34.84;76019.41;5115283;28;20689;-69
2023/05/28 11:24:54;;;;;;;4.20;3.87;;;;;;;-145.94;34.74;76017.38;5115140;28;20185;-69